Scioto Furnace, Ohio
Current Conditions -  °F | °C
As of 11:55 AM on Friday 28 Nov 2014 (Local Time) from KDWU Reporting Station
Scattered Clouds Scattered Clouds  
Wind Chill: 30°   Ceiling: Unl
Heat Index: 34°   Visibility: 10mi
Dew Point: 16°   Wind: 5mph
Humidity: 48%   Direction: 240°WSW
Pressure: 30.37"   Gusts: NA
Location:  38.8°N, 82.76°W
Report Text: KDWU 281655Z AUTO 24004KT 10SM SCT090 01/M09 A3037 RMK AO1
Loading
Personal Weather Stations






























Interactive Weather Map New forecast layout! Learn more

10-Day Weather Forecast

Advertisements
Track Severe Weather on mobile